createdAt,value
2022-12-05T00:01:42.566Z,101388.66
2022-12-05T00:04:14.636Z,101387.69
2022-12-05T00:06:43.306Z,101385.06
2022-12-05T00:09:13.444Z,101388.47
2022-12-05T00:11:43.039Z,101386.63
2022-12-05T00:14:13.068Z,101390.25
2022-12-05T00:16:43.087Z,101391.13
2022-12-05T00:19:14.816Z,101392.88
2022-12-05T00:21:42.361Z,101393.75
2022-12-05T00:24:14.534Z,101386.59
2022-12-05T00:26:42.004Z,101386.53
2022-12-05T00:29:09.459Z,101388.25
2022-12-05T00:31:36.303Z,101379.34
2022-12-05T00:34:04.002Z,101379.34
2022-12-05T00:36:35.983Z,101381.97
2022-12-05T00:39:09.153Z,101381.09
2022-12-05T00:41:36.137Z,101372.19
2022-12-05T00:44:04.300Z,101374.81
2022-12-05T00:46:33.577Z,101373.91
2022-12-05T00:49:03.185Z,101368.59
2022-12-05T00:51:38.860Z,101370.34
2022-12-05T00:54:14.941Z,101372.13
2022-12-05T00:56:43.058Z,101375.59
2022-12-05T00:59:17.598Z,101372.00
2022-12-05T01:01:47.151Z,101371.94
2022-12-05T01:04:18.678Z,101377.19
2022-12-05T01:06:46.376Z,101382.47
2022-12-05T01:09:17.940Z,101366.53
2022-12-05T01:11:45.086Z,101384.25
2022-12-05T01:14:15.061Z,101380.75
2022-12-05T01:16:44.907Z,101385.22
2022-12-05T01:19:20.713Z,101389.59
2022-12-05T01:21:47.856Z,101391.34
2022-12-05T01:24:16.205Z,101387.88
2022-12-05T01:26:44.531Z,101388.75
2022-12-05T01:29:15.410Z,101381.59
2022-12-05T01:31:43.041Z,101392.22
2022-12-05T01:34:16.722Z,101395.75
2022-12-05T01:36:45.063Z,101402.00
2022-12-05T01:39:13.573Z,101399.25
2022-12-05T01:41:48.574Z,101404.59
2022-12-05T01:44:15.370Z,101407.25
2022-12-05T01:46:50.536Z,101412.50
2022-12-05T01:49:43.818Z,101410.69
2022-12-05T01:52:20.120Z,101413.34
2022-12-05T01:54:52.213Z,101410.78
2022-12-05T01:57:19.833Z,101417.00
2022-12-05T01:59:51.859Z,101417.84
2022-12-05T02:02:19.836Z,101414.28
2022-12-05T02:05:04.543Z,101415.16
2022-12-05T02:07:32.809Z,101410.78
2022-12-05T02:09:59.864Z,101411.66
2022-12-05T02:12:27.793Z,101412.50
2022-12-05T02:15:37.579Z,101411.53
2022-12-05T02:18:26.137Z,101407.09
2022-12-05T02:21:17.563Z,101414.16
2022-12-05T02:24:02.151Z,101417.66
2022-12-05T02:26:34.581Z,101421.19
2022-12-05T02:29:13.439Z,101420.34
2022-12-05T02:32:06.612Z,101414.16
2022-12-05T02:35:12.197Z,101419.44
2022-12-05T02:37:56.382Z,101406.94
2022-12-05T02:40:41.339Z,101412.34
2022-12-05T02:43:20.334Z,101406.31
2022-12-05T02:45:55.111Z,101407.25
2022-12-05T02:48:28.673Z,101413.53
2022-12-05T02:51:00.373Z,101412.59
2022-12-05T02:53:29.676Z,101413.56
2022-12-05T02:55:57.940Z,101413.63
2022-12-05T02:58:44.466Z,101418.16
2022-12-05T03:01:12.374Z,101420.00
2022-12-05T03:03:39.323Z,101421.81
2022-12-05T03:06:21.098Z,101416.50
2022-12-05T03:08:59.386Z,101420.97
2022-12-05T03:11:42.067Z,101422.63
2022-12-05T03:14:23.018Z,101418.25
2022-12-05T03:17:00.017Z,101417.44
2022-12-05T03:19:37.021Z,101414.75
2022-12-05T03:22:14.328Z,101413.84
2022-12-05T03:24:43.313Z,101418.28
2022-12-05T03:27:36.827Z,101418.25
2022-12-05T03:30:13.083Z,101412.03
2022-12-05T03:33:07.450Z,101408.47
2022-12-05T03:36:01.350Z,101416.38
2022-12-05T03:38:45.509Z,101410.22
2022-12-05T03:41:30.118Z,101411.09
2022-12-05T03:44:29.309Z,101404.91
2022-12-05T03:47:07.351Z,101415.50
2022-12-05T03:49:45.934Z,101409.25
2022-12-05T03:52:22.218Z,101415.47
2022-12-05T03:55:10.512Z,101415.41
2022-12-05T03:57:46.306Z,101415.31
2022-12-05T04:00:20.116Z,101412.72
2022-12-05T04:02:57.904Z,101412.75
2022-12-05T04:05:32.473Z,101411.84
2022-12-05T04:08:08.103Z,101416.25
2022-12-05T04:10:50.190Z,101417.09
2022-12-05T04:13:40.601Z,101420.59
2022-12-05T04:16:34.736Z,101419.69
2022-12-05T04:19:23.051Z,101426.81
2022-12-05T04:21:56.197Z,101422.38
2022-12-05T04:24:50.539Z,101423.25
2022-12-05T04:27:30.601Z,101432.09
2022-12-05T04:30:07.682Z,101426.81
2022-12-05T04:32:45.030Z,101425.09
2022-12-05T04:35:27.410Z,101430.34
2022-12-05T04:38:03.994Z,101433.84
2022-12-05T04:40:46.787Z,101431.19
2022-12-05T04:43:16.539Z,101434.72
2022-12-05T04:45:44.678Z,101438.19
2022-12-05T04:48:17.300Z,101439.13
2022-12-05T04:50:49.277Z,101448.00
2022-12-05T04:53:18.271Z,101435.63
2022-12-05T04:55:53.463Z,101435.59
2022-12-05T04:58:27.990Z,101435.50
2022-12-05T05:01:30.258Z,101435.44
2022-12-05T05:04:08.377Z,101433.59
2022-12-05T05:06:39.588Z,101435.34
2022-12-05T05:09:06.651Z,101436.22
2022-12-05T05:11:35.605Z,101438.84
2022-12-05T05:14:03.360Z,101436.16
2022-12-05T05:16:39.043Z,101445.06
2022-12-05T05:19:08.213Z,101438.84
2022-12-05T05:21:39.371Z,101442.34
2022-12-05T05:24:08.271Z,101447.69
2022-12-05T05:26:39.783Z,101448.56
2022-12-05T05:29:07.006Z,101447.69
2022-12-05T05:31:34.001Z,101445.84
2022-12-05T05:34:05.954Z,101453.88
2022-12-05T05:36:36.012Z,101448.53
2022-12-05T05:39:06.777Z,101447.63
2022-12-05T05:41:36.585Z,101452.94
2022-12-05T05:44:05.059Z,101454.69
2022-12-05T05:46:34.562Z,101451.13
2022-12-05T05:49:01.809Z,101447.50
2022-12-05T05:51:30.300Z,101442.19
2022-12-05T05:53:58.908Z,101453.78
2022-12-05T05:56:26.672Z,101446.63
2022-12-05T05:59:00.406Z,101447.44
2022-12-05T06:01:29.108Z,101447.44
2022-12-05T06:03:56.375Z,101449.28
2022-12-05T06:06:24.465Z,101452.69
2022-12-05T06:08:51.317Z,101452.59
2022-12-05T06:11:27.598Z,101454.38
2022-12-05T06:14:03.142Z,101455.19
2022-12-05T06:16:31.760Z,101449.91
2022-12-05T06:18:59.553Z,101457.84
2022-12-05T06:21:26.459Z,101466.75
2022-12-05T06:23:53.925Z,101459.66
2022-12-05T06:26:22.642Z,101460.56
2022-12-05T06:28:49.957Z,101462.34
2022-12-05T06:31:23.777Z,101466.75
2022-12-05T06:33:50.669Z,101470.28
2022-12-05T06:36:20.801Z,101470.28
2022-12-05T06:38:48.083Z,101473.00
2022-12-05T06:41:20.891Z,101472.06
2022-12-05T06:43:48.066Z,101472.03
2022-12-05T06:46:17.042Z,101475.63
2022-12-05T06:48:44.353Z,101473.78
2022-12-05T06:51:14.393Z,101473.69
2022-12-05T06:53:42.033Z,101470.97
2022-12-05T06:56:14.891Z,101474.63
2022-12-05T06:58:44.815Z,101477.16
2022-12-05T07:01:37.720Z,101477.13
2022-12-05T07:04:25.766Z,101480.59
2022-12-05T07:06:55.806Z,101477.91
2022-12-05T07:09:44.400Z,101477.88
2022-12-05T07:12:12.907Z,101483.22
2022-12-05T07:14:47.733Z,101489.38
2022-12-05T07:17:15.172Z,101484.81
2022-12-05T07:19:41.993Z,101487.47
2022-12-05T07:22:15.196Z,101492.78
2022-12-05T07:24:43.209Z,101503.47
2022-12-05T07:27:09.931Z,101498.06
2022-12-05T07:29:36.636Z,101503.28
2022-12-05T07:32:04.150Z,101507.69
2022-12-05T07:34:31.045Z,101505.88
2022-12-05T07:36:57.767Z,101510.41
2022-12-05T07:39:24.554Z,101507.69
2022-12-05T07:41:51.269Z,101505.97
2022-12-05T07:44:18.080Z,101505.97
2022-12-05T07:46:45.179Z,101503.22
2022-12-05T07:49:12.073Z,101507.59
2022-12-05T07:51:38.974Z,101511.03
2022-12-05T07:54:06.770Z,101508.22
2022-12-05T07:56:33.776Z,101509.94
2022-12-05T07:59:00.510Z,101508.13
2022-12-05T08:01:29.573Z,101514.28
2022-12-05T08:03:59.872Z,101515.13
2022-12-05T08:06:30.403Z,101522.19
2022-12-05T08:08:58.192Z,101529.22
2022-12-05T08:11:30.280Z,101532.75
2022-12-05T08:13:58.744Z,101529.13
2022-12-05T08:16:29.515Z,101536.28
2022-12-05T08:19:02.512Z,101541.56
2022-12-05T08:21:29.473Z,101534.28
2022-12-05T08:23:57.199Z,101540.50
2022-12-05T08:26:31.283Z,101537.72
2022-12-05T08:29:08.694Z,101548.38
2022-12-05T08:31:42.605Z,101543.03
2022-12-05T08:34:13.049Z,101550.22
2022-12-05T08:36:40.861Z,101544.81
2022-12-05T08:39:14.201Z,101542.88
2022-12-05T08:41:45.066Z,101549.06
2022-12-05T08:44:16.506Z,101545.41
2022-12-05T08:46:49.280Z,101555.28
2022-12-05T08:49:17.733Z,101554.53
2022-12-05T08:51:45.107Z,101553.72
2022-12-05T08:54:12.184Z,101550.22
2022-12-05T08:56:39.012Z,101561.84
2022-12-05T08:59:06.407Z,101558.44
2022-12-05T09:01:38.658Z,101565.66
2022-12-05T09:04:07.716Z,101563.00
2022-12-05T09:06:36.431Z,101566.59
2022-12-05T09:09:08.315Z,101572.88
2022-12-05T09:11:40.938Z,101568.44
2022-12-05T09:14:08.031Z,101571.13
2022-12-05T09:16:39.081Z,101573.88
2022-12-05T09:19:20.947Z,101580.94
2022-12-05T09:21:47.940Z,101580.94
2022-12-05T09:24:15.086Z,101588.06
2022-12-05T09:26:42.873Z,101588.06
2022-12-05T09:29:16.856Z,101588.09
2022-12-05T09:31:48.805Z,101589.94
2022-12-05T09:34:17.926Z,101588.09
2022-12-05T09:36:49.666Z,101595.25
2022-12-05T09:39:16.399Z,101590.00
2022-12-05T09:42:10.337Z,101595.47
2022-12-05T09:45:11.084Z,101600.97
2022-12-05T09:47:58.899Z,101599.13
2022-12-05T09:50:35.031Z,101600.97
2022-12-05T09:53:23.408Z,101594.75
2022-12-05T09:56:09.601Z,101599.31
2022-12-05T09:58:50.287Z,101598.47
2022-12-05T10:01:44.128Z,101596.66
2022-12-05T10:04:54.394Z,101602.88
2022-12-05T10:07:48.229Z,101604.72
2022-12-05T10:10:59.792Z,101608.44
2022-12-05T10:13:57.499Z,101606.94
2022-12-05T10:16:31.973Z,101599.00
2022-12-05T10:19:16.265Z,101598.13
2022-12-05T10:22:04.829Z,101602.72
2022-12-05T10:24:38.588Z,101600.09
2022-12-05T10:27:18.371Z,101600.94
2022-12-05T10:29:50.708Z,101601.97
2022-12-05T10:32:27.653Z,101602.16
2022-12-05T10:35:14.110Z,101597.69
2022-12-05T10:37:48.254Z,101600.38
2022-12-05T10:40:16.297Z,101604.88
2022-12-05T10:42:44.434Z,101600.44
2022-12-05T10:45:22.399Z,101597.63
2022-12-05T10:47:55.875Z,101604.69
2022-12-05T10:50:37.045Z,101609.16
2022-12-05T10:53:07.050Z,101603.81
2022-12-05T10:56:00.094Z,101601.16
2022-12-05T10:58:30.477Z,101595.75
2022-12-05T11:01:08.707Z,101600.16
2022-12-05T11:03:41.224Z,101603.75
2022-12-05T11:06:32.109Z,101598.34
2022-12-05T11:09:24.920Z,101592.09
2022-12-05T11:12:09.187Z,101591.19
2022-12-05T11:14:36.460Z,101592.84
2022-12-05T11:17:05.573Z,101591.84
2022-12-05T11:19:35.661Z,101582.78
2022-12-05T11:22:04.876Z,101585.25
2022-12-05T11:24:36.785Z,101579.91
2022-12-05T11:27:15.929Z,101586.00
2022-12-05T11:29:53.197Z,101582.41
2022-12-05T11:32:25.880Z,101588.56
2022-12-05T11:35:11.674Z,101585.13
2022-12-05T11:37:53.855Z,101582.38
2022-12-05T11:40:41.881Z,101590.22
2022-12-05T11:43:45.342Z,101593.66
2022-12-05T11:46:50.261Z,101587.31
2022-12-05T11:49:56.802Z,101588.09
2022-12-05T11:52:54.663Z,101587.94
2022-12-05T11:55:31.735Z,101584.31
2022-12-05T11:58:48.220Z,101589.47
2022-12-05T12:01:59.152Z,101585.00
2022-12-05T12:04:35.073Z,101583.22
2022-12-05T12:07:49.027Z,101591.22
2022-12-05T12:10:51.415Z,101585.78
2022-12-05T12:13:47.074Z,101576.88
2022-12-05T12:16:40.927Z,101585.63
2022-12-05T12:19:30.283Z,101590.97
2022-12-05T12:22:17.297Z,101590.09
2022-12-05T12:25:03.506Z,101589.38
2022-12-05T12:27:42.167Z,101576.06
2022-12-05T12:30:17.493Z,101582.31
2022-12-05T12:33:04.920Z,101585.88
2022-12-05T12:35:53.938Z,101577.81
2022-12-05T12:39:02.777Z,101578.72
2022-12-05T12:41:44.733Z,101580.44
2022-12-05T12:44:42.921Z,101568.03
2022-12-05T12:47:44.897Z,101576.06
2022-12-05T12:50:22.103Z,101565.47
2022-12-05T12:53:08.408Z,101567.31
2022-12-05T12:56:01.456Z,101564.59
2022-12-05T12:59:09.158Z,101562.75
2022-12-05T13:01:56.467Z,101558.16
2022-12-05T13:04:40.550Z,101560.66
2022-12-05T13:07:29.173Z,101555.22
2022-12-05T13:10:11.196Z,101560.38
2022-12-05T13:12:41.310Z,101556.69
2022-12-05T13:15:24.244Z,101555.72
2022-12-05T13:17:53.730Z,101544.88
2022-12-05T13:20:30.645Z,101549.97
2022-12-05T13:22:59.189Z,101548.97
2022-12-05T13:25:34.936Z,101552.47
2022-12-05T13:28:08.337Z,101546.19
2022-12-05T13:30:55.369Z,101550.69
2022-12-05T13:33:26.850Z,101552.47
2022-12-05T13:36:24.819Z,101551.50
2022-12-05T13:39:36.717Z,101541.59
2022-12-05T13:42:16.325Z,101545.13
2022-12-05T13:44:52.780Z,101542.38
2022-12-05T13:47:49.724Z,101546.66
2022-12-05T13:50:24.247Z,101548.28
2022-12-05T13:53:02.091Z,101548.22
2022-12-05T13:55:37.153Z,101548.09
2022-12-05T13:58:54.916Z,101546.34
2022-12-05T14:01:27.807Z,101555.22
2022-12-05T14:04:02.233Z,101551.56
2022-12-05T14:06:40.741Z,101556.75
2022-12-05T14:09:19.416Z,101552.34
2022-12-05T14:12:21.560Z,101550.59
2022-12-05T14:14:57.430Z,101553.19
2022-12-05T14:17:45.026Z,101554.09
2022-12-05T14:20:31.464Z,101554.25
2022-12-05T14:23:13.845Z,101559.69
2022-12-05T14:26:03.265Z,101563.34
2022-12-05T14:28:47.610Z,101560.75
2022-12-05T14:32:00.960Z,101561.53
2022-12-05T14:34:35.213Z,101565.22
2022-12-05T14:37:25.470Z,101566.31
2022-12-05T14:39:57.777Z,101562.69
2022-12-05T14:42:44.361Z,101569.88
2022-12-05T14:45:20.181Z,101566.38
2022-12-05T14:48:20.209Z,101567.25
2022-12-05T14:50:53.555Z,101569.88
2022-12-05T14:53:32.020Z,101553.84
2022-12-05T14:56:19.561Z,101569.09
2022-12-05T14:59:09.965Z,101573.59
2022-12-05T15:01:51.002Z,101571.81
2022-12-05T15:04:44.293Z,101571.94
2022-12-05T15:07:22.290Z,101568.31
2022-12-05T15:09:58.164Z,101572.81
2022-12-05T15:12:40.199Z,101566.59
2022-12-05T15:15:34.128Z,101570.09
2022-12-05T15:18:34.980Z,101569.09
2022-12-05T15:21:09.158Z,101571.72
2022-12-05T15:23:49.337Z,101571.72
2022-12-05T15:26:47.367Z,101571.72
2022-12-05T15:29:20.679Z,101580.66
2022-12-05T15:32:02.298Z,101578.88
2022-12-05T15:34:44.815Z,101583.28
2022-12-05T15:37:24.910Z,101585.91
2022-12-05T15:40:02.281Z,101582.34
2022-12-05T15:42:36.304Z,101587.56
2022-12-05T15:45:15.034Z,101589.34
2022-12-05T15:47:42.482Z,101582.22
2022-12-05T15:50:19.946Z,101591.97
2022-12-05T15:53:13.586Z,101585.81
2022-12-05T15:55:51.522Z,101588.41
2022-12-05T15:58:40.848Z,101594.59
2022-12-05T16:01:24.157Z,101585.63
2022-12-05T16:04:00.283Z,101582.97
2022-12-05T16:06:54.739Z,101581.94
2022-12-05T16:09:31.325Z,101593.47
2022-12-05T16:12:03.092Z,101588.84
2022-12-05T16:17:29.083Z,101586.91
2022-12-05T16:20:22.017Z,101587.97
2022-12-05T16:22:53.853Z,101594.41
2022-12-05T16:25:36.539Z,101596.13
2022-12-05T16:28:09.178Z,101588.06
2022-12-05T16:30:37.449Z,101592.47
2022-12-05T16:33:15.734Z,101589.69
2022-12-05T16:35:47.465Z,101593.25
2022-12-05T16:38:17.139Z,101587.00
2022-12-05T16:40:46.974Z,101602.22
2022-12-05T16:43:22.867Z,101599.53
2022-12-05T16:45:52.834Z,101598.59
2022-12-05T16:48:38.241Z,101602.06
2022-12-05T16:51:14.132Z,101602.88
2022-12-05T16:53:46.230Z,101604.59
2022-12-05T16:56:20.526Z,101602.75
2022-12-05T16:58:47.595Z,101608.09
2022-12-05T17:01:25.318Z,101604.53
2022-12-05T17:03:54.168Z,101602.66
2022-12-05T17:06:24.005Z,101600.88
2022-12-05T17:08:52.740Z,101598.97
2022-12-05T17:11:30.953Z,101598.91
2022-12-05T17:13:59.149Z,101606.00
2022-12-05T17:16:26.977Z,101600.66
2022-12-05T17:18:54.565Z,101602.38
2022-12-05T17:21:26.205Z,101608.50
2022-12-05T17:23:53.056Z,101612.94
2022-12-05T17:26:22.375Z,101612.91
2022-12-05T17:28:50.003Z,101607.56
2022-12-05T17:31:23.208Z,101608.41
2022-12-05T17:33:52.579Z,101607.44
2022-12-05T17:36:21.167Z,101611.88
2022-12-05T17:38:48.889Z,101616.41
2022-12-05T17:41:19.447Z,101612.78
2022-12-05T17:43:47.325Z,101616.34
2022-12-05T17:46:23.493Z,101612.78
2022-12-05T17:48:52.006Z,101612.78
2022-12-05T17:51:20.342Z,101606.53
2022-12-05T17:53:47.722Z,101611.88
2022-12-05T17:56:15.156Z,101615.47
2022-12-05T17:58:42.641Z,101626.13
2022-12-05T18:01:20.055Z,101619.03
2022-12-05T18:03:48.581Z,101626.16
2022-12-05T18:06:16.495Z,101632.34
2022-12-05T18:08:45.073Z,101630.56
2022-12-05T18:11:14.080Z,101629.66
2022-12-05T18:13:40.971Z,101626.97
2022-12-05T18:16:08.308Z,101641.31
2022-12-05T18:18:35.151Z,101643.84
2022-12-05T18:21:12.770Z,101643.84
2022-12-05T18:23:40.536Z,101637.59
2022-12-05T18:26:10.298Z,101636.72
2022-12-05T18:28:38.980Z,101644.81
2022-12-05T18:31:16.013Z,101643.00
2022-12-05T18:33:47.147Z,101640.31
2022-12-05T18:36:18.040Z,101650.16
2022-12-05T18:38:57.007Z,101648.34
2022-12-05T18:41:26.574Z,101641.19
2022-12-05T18:43:54.428Z,101639.44
2022-12-05T18:46:21.319Z,101645.66
2022-12-05T18:48:48.928Z,101650.16
2022-12-05T18:51:21.268Z,101646.66
2022-12-05T18:53:54.053Z,101641.31
2022-12-05T18:56:30.289Z,101646.66
2022-12-05T18:59:04.620Z,101645.72
2022-12-05T19:01:35.322Z,101644.84
2022-12-05T19:04:04.848Z,101646.66
2022-12-05T19:06:33.816Z,101650.25
2022-12-05T19:09:05.309Z,101655.59
2022-12-05T19:11:32.782Z,101660.97
2022-12-05T19:14:03.782Z,101657.41
2022-12-05T19:16:33.845Z,101655.63
2022-12-05T19:19:04.170Z,101665.47
2022-12-05T19:21:34.420Z,101664.56
2022-12-05T19:24:06.947Z,101668.09
2022-12-05T19:26:34.968Z,101675.25
2022-12-05T19:29:01.760Z,101676.16
2022-12-05T19:31:30.270Z,101685.13
2022-12-05T19:34:01.533Z,101687.84
2022-12-05T19:36:46.172Z,101679.84
2022-12-05T19:39:23.782Z,101684.28
2022-12-05T19:41:52.843Z,101684.28
2022-12-05T19:44:20.223Z,101685.22
2022-12-05T19:46:49.383Z,101679.84
2022-12-05T19:49:20.240Z,101676.22
2022-12-05T19:51:48.757Z,101675.34
2022-12-05T19:54:17.819Z,101678.84
2022-12-05T19:56:44.752Z,101679.66
2022-12-05T19:59:15.748Z,101679.63
2022-12-05T20:01:42.846Z,101686.63
2022-12-05T20:04:14.148Z,101680.31
2022-12-05T20:06:47.451Z,101692.75
2022-12-05T20:09:18.976Z,101684.69
2022-12-05T20:11:54.529Z,101685.56
2022-12-05T20:14:25.295Z,101688.16
2022-12-05T20:16:53.998Z,101683.75
2022-12-05T20:19:21.360Z,101690.81
2022-12-05T20:21:48.225Z,101689.09
2022-12-05T20:24:15.065Z,101688.97
2022-12-05T20:26:44.939Z,101690.81
2022-12-05T20:29:12.011Z,101688.19
2022-12-05T20:31:42.296Z,101692.69
2022-12-05T20:34:13.562Z,101688.16
2022-12-05T20:36:41.172Z,101688.06
2022-12-05T20:39:14.117Z,101676.63
2022-12-05T20:41:40.992Z,101681.97
2022-12-05T20:44:11.340Z,101678.38
2022-12-05T20:46:38.212Z,101684.59
2022-12-05T20:49:04.956Z,101673.03
2022-12-05T20:51:34.444Z,101671.19
2022-12-05T20:54:03.740Z,101669.31
2022-12-05T20:56:33.406Z,101673.72
2022-12-05T20:59:05.140Z,101667.47
2022-12-05T21:01:36.053Z,101670.25
2022-12-05T21:04:05.951Z,101681.88
2022-12-05T21:06:36.264Z,101670.34
2022-12-05T21:09:14.828Z,101680.13
2022-12-05T21:11:42.921Z,101674.69
2022-12-05T21:14:10.391Z,101685.38
2022-12-05T21:16:37.823Z,101680.03
2022-12-05T21:19:04.519Z,101677.41
2022-12-05T21:21:34.265Z,101678.25
2022-12-05T21:24:03.830Z,101680.84
2022-12-05T21:26:34.195Z,101681.69
2022-12-05T21:29:02.566Z,101677.22
2022-12-05T21:31:36.563Z,101677.22
2022-12-05T21:34:17.328Z,101667.47
2022-12-05T21:36:44.931Z,101670.97
2022-12-05T21:39:12.338Z,101667.47
2022-12-05T21:41:39.635Z,101663.97
2022-12-05T21:44:07.255Z,101663.16
2022-12-05T21:46:34.445Z,101662.22
2022-12-05T21:49:01.438Z,101665.72
2022-12-05T21:51:28.331Z,101670.16
2022-12-05T21:53:55.073Z,101671.97
2022-12-05T21:56:23.477Z,101668.50
2022-12-05T21:58:51.148Z,101679.25
2022-12-05T22:01:24.599Z,101685.47
2022-12-05T22:03:59.499Z,101680.13
2022-12-05T22:06:26.793Z,101678.38
2022-12-05T22:08:55.512Z,101687.25
2022-12-05T22:11:24.223Z,101688.09
2022-12-05T22:13:51.924Z,101678.25
2022-12-05T22:16:20.078Z,101689.94
2022-12-05T22:18:47.191Z,101683.75
2022-12-05T22:21:21.696Z,101689.09
2022-12-05T22:23:49.774Z,101686.41
2022-12-05T22:26:25.594Z,101687.31
2022-12-05T22:28:55.018Z,101690.03
2022-12-05T22:31:24.069Z,101685.69
2022-12-05T22:33:51.492Z,101694.53
2022-12-05T22:36:19.819Z,101694.59
2022-12-05T22:38:48.092Z,101692.88
2022-12-05T22:41:25.597Z,101691.16
2022-12-05T22:43:58.857Z,101685.75
2022-12-05T22:46:28.179Z,101692.97
2022-12-05T22:48:55.661Z,101685.75
2022-12-05T22:51:23.416Z,101687.53
2022-12-05T22:53:52.594Z,101691.03
2022-12-05T22:56:21.796Z,101681.22
2022-12-05T22:58:49.531Z,101683.09
2022-12-05T23:01:25.377Z,101687.63
2022-12-05T23:04:02.355Z,101683.16
2022-12-05T23:06:31.795Z,101684.13
2022-12-05T23:09:00.159Z,101682.34
2022-12-05T23:11:29.865Z,101677.00
2022-12-05T23:14:01.695Z,101680.63
2022-12-05T23:16:32.880Z,101685.97
2022-12-05T23:19:04.054Z,101679.63
2022-12-05T23:21:36.062Z,101684.13
2022-12-05T23:24:07.002Z,101684.00
2022-12-05T23:26:41.914Z,101688.53
2022-12-05T23:29:12.388Z,101679.63
2022-12-05T23:31:40.915Z,101684.13
2022-12-05T23:34:08.630Z,101676.13
2022-12-05T23:36:36.733Z,101678.75
2022-12-05T23:39:05.759Z,101678.75
2022-12-05T23:41:33.363Z,101682.31
2022-12-05T23:44:00.338Z,101675.22
2022-12-05T23:46:29.226Z,101673.41
2022-12-05T23:48:57.644Z,101679.63
2022-12-05T23:51:28.188Z,101682.34
2022-12-05T23:53:59.294Z,101680.63
2022-12-05T23:56:30.681Z,101677.00
2022-12-05T23:58:58.266Z,101677.00
